Time;durP1;ratioP1;P1;durP2;ratioP2;P2;SDS_P1;SDS_P2;PMS_P1;PMS_P2;Temp;Humidity;BMP_temperature;BMP_pressure;BME280_temperature;BME280_humidity;BME280_pressure;Samples;Min_cycle;Max_cycle;Signal;HPM_P1;HPM_P2
2021/11/07 00:00:56;;;;;;;7.85;5.38;;;12.40;94.70;;;;;;4958804;28;20075;-86
2021/11/07 00:03:40;;;;;;;5.75;4.78;;;12.40;94.40;;;;;;4958102;28;20023;-87
2021/11/07 00:06:23;;;;;;;8.65;5.18;;;12.40;94.60;;;;;;4959302;28;20046;-87
2021/11/07 00:09:11;;;;;;;;;;;12.30;94.80;;;;;;4957473;29;20082;-86
2021/11/07 00:11:39;;;;;;;6.28;4.97;;;12.30;94.70;;;;;;4958360;29;19910;-86
2021/11/07 00:14:07;;;;;;;5.70;4.93;;;12.20;94.70;;;;;;4956967;29;20061;-85
2021/11/07 00:16:36;;;;;;;7.05;5.00;;;12.20;95.00;;;;;;4961165;28;20058;-85
2021/11/07 00:21:41;;;;;;;5.90;4.88;;;12.30;95.30;;;;;;4976798;28;20122;-84
2021/11/07 00:24:13;;;;;;;6.32;5.10;;;12.30;94.90;;;;;;4962477;28;20027;-85
2021/11/07 00:26:53;;;;;;;7.78;5.18;;;12.30;94.90;;;;;;4957628;28;20095;-85
2021/11/07 00:29:26;;;;;;;14.45;5.80;;;12.30;94.90;;;;;;4956788;28;20050;-83
2021/11/07 00:32:02;;;;;;;6.72;5.00;;;12.30;95.00;;;;;;4958238;28;20051;-85
2021/11/07 00:37:24;;;;;;;8.05;5.20;;;12.30;95.40;;;;;;4958073;29;20034;-87
2021/11/07 00:42:39;;;;;;;8.65;5.93;;;12.20;95.80;;;;;;4977100;28;20027;-86
2021/11/07 00:46:01;;;;;;;7.30;5.32;;;12.20;95.90;;;;;;4975233;28;20074;-85
2021/11/07 00:50:28;;;;;;;9.93;5.35;;;12.00;96.50;;;;;;4977090;28;20062;-86
2021/11/07 00:53:19;;;;;;;7.57;6.07;;;12.00;97.20;;;;;;4978366;28;20450;-87
2021/11/07 00:58:42;;;;;;;6.68;5.18;;;11.90;97.80;;;;;;4978036;28;20688;-87
2021/11/07 01:01:12;;;;;;;8.57;5.40;;;11.90;98.30;;;;;;4977859;28;20118;-86
2021/11/07 01:03:39;;;;;;;7.95;4.88;;;11.80;98.60;;;;;;4976349;28;20398;-85
2021/11/07 01:06:04;;;;;;;8.15;4.97;;;11.80;99.10;;;;;;4974468;28;20042;-86
2021/11/07 01:08:30;;;;;;;8.90;4.72;;;11.80;99.30;;;;;;4975584;28;20043;-86
2021/11/07 01:11:00;;;;;;;8.52;5.07;;;11.80;99.40;;;;;;4976296;28;20022;-86
2021/11/07 01:13:27;;;;;;;6.95;5.10;;;11.90;99.30;;;;;;4977198;28;20018;-86
2021/11/07 01:15:54;;;;;;;5.55;4.85;;;11.90;99.30;;;;;;4977324;28;20019;-86
2021/11/07 01:18:20;;;;;;;5.07;4.57;;;11.90;99.40;;;;;;4976314;28;20539;-86
2021/11/07 01:20:48;;;;;;;7.90;4.50;;;11.80;99.50;;;;;;4976397;28;20027;-86
2021/11/07 01:23:40;;;;;;;5.00;4.07;;;11.80;99.40;;;;;;4976082;28;20490;-87
2021/11/07 01:26:16;;;;;;;5.55;4.32;;;11.80;99.60;;;;;;4963183;28;20050;-87
2021/11/07 01:28:48;;;;;;;6.97;4.82;;;11.80;99.70;;;;;;4957077;28;20054;-86
2021/11/07 01:31:15;;;;;;;6.13;3.58;;;11.80;99.90;;;;;;4956049;29;20621;-86
2021/11/07 01:33:41;;;;;;;4.93;4.07;;;11.90;99.90;;;;;;4956802;28;20110;-86
2021/11/07 01:38:40;;;;;;;8.38;4.15;;;11.80;99.90;;;;;;4956765;28;20027;-86
2021/11/07 01:41:28;;;;;;;6.43;4.93;;;11.80;99.90;;;;;;4956269;28;20016;-86
2021/11/07 01:43:58;;;;;;;6.20;4.63;;;11.70;99.90;;;;;;4956329;28;20074;-87
2021/11/07 01:46:30;;;;;;;8.00;5.15;;;11.70;99.90;;;;;;4954842;29;20575;-85
2021/11/07 01:51:25;;;;;;;6.63;5.28;;;11.60;99.90;;;;;;4964152;28;20046;-85
2021/11/07 01:53:54;;;;;;;6.38;5.07;;;11.50;99.90;;;;;;4975857;28;20023;-86
2021/11/07 01:56:19;;;;;;;8.40;5.32;;;11.40;99.90;;;;;;4958177;28;20054;-87
2021/11/07 01:58:46;;;;;;;8.05;5.22;;;11.40;99.90;;;;;;4966144;28;20663;-87
2021/11/07 02:01:21;;;;;;;7.70;5.10;;;11.30;99.90;;;;;;4997371;28;20490;-87
2021/11/07 02:03:46;;;;;;;6.38;4.82;;;11.30;99.90;;;;;;4996676;28;20497;-87
2021/11/07 02:06:12;;;;;;;7.82;4.85;;;11.30;99.90;;;;;;4979896;28;20054;-87
2021/11/07 02:08:38;;;;;;;8.93;5.65;;;11.30;99.90;;;;;;4979366;28;20497;-87
2021/11/07 02:11:04;;;;;;;5.90;5.15;;;11.30;99.90;;;;;;4978654;28;20068;-84
2021/11/07 02:13:30;;;;;;;5.30;4.72;;;11.30;99.90;;;;;;4994725;28;20026;-85
2021/11/07 02:15:57;;;;;;;6.50;5.38;;;11.30;99.90;;;;;;4994630;28;20047;-87
2021/11/07 02:18:23;;;;;;;8.15;5.05;;;11.30;99.90;;;;;;4994506;28;20081;-86
2021/11/07 02:20:49;;;;;;;6.30;5.43;;;11.20;99.90;;;;;;4993789;28;20030;-85
2021/11/07 02:23:21;;;;;;;7.90;5.72;;;11.20;99.90;;;;;;4976985;28;20027;-87
2021/11/07 02:25:48;;;;;;;8.13;5.28;;;11.20;99.90;;;;;;4976753;28;20073;-85
2021/11/07 02:28:45;;;;;;;6.53;5.10;;;11.20;99.90;;;;;;4976750;28;20077;-86
2021/11/07 02:31:13;;;;;;;5.95;5.35;;;11.20;99.90;;;;;;4960621;28;20058;-86
2021/11/07 02:33:39;;;;;;;8.30;5.30;;;11.20;99.90;;;;;;4976724;28;20037;-85
2021/11/07 02:36:10;;;;;;;8.38;4.72;;;11.10;99.90;;;;;;4994285;28;20033;-84
2021/11/07 02:38:37;;;;;;;5.20;4.43;;;11.20;99.90;;;;;;4976970;28;20057;-84
2021/11/07 02:41:05;;;;;;;4.57;4.18;;;11.20;99.90;;;;;;4994395;28;20085;-84
2021/11/07 02:43:37;;;;;;;7.07;4.15;;;11.30;99.90;;;;;;4994509;28;20076;-85
2021/11/07 02:46:03;;;;;;;8.07;4.47;;;11.30;99.90;;;;;;4994269;28;20019;-85
2021/11/07 02:48:29;;;;;;;7.88;5.10;;;11.30;99.90;;;;;;4976772;28;20496;-87
2021/11/07 02:50:55;;;;;;;4.85;4.30;;;11.30;99.90;;;;;;4992138;28;20110;-85
2021/11/07 02:53:20;;;;;;;4.88;4.28;;;11.40;99.90;;;;;;4975394;28;20485;-85
2021/11/07 02:55:46;;;;;;;4.13;3.67;;;11.40;99.90;;;;;;4975715;28;20026;-85
2021/11/07 02:58:12;;;;;;;5.75;3.72;;;11.40;99.90;;;;;;4993718;28;20054;-85
2021/11/07 03:00:37;;;;;;;5.13;4.10;;;11.40;99.90;;;;;;4993223;28;20054;-85
2021/11/07 03:03:03;;;;;;;4.38;3.97;;;11.40;99.90;;;;;;4976449;28;20371;-86
2021/11/07 03:05:31;;;;;;;6.95;4.13;;;11.50;99.90;;;;;;4975213;28;20023;-87
2021/11/07 03:07:58;;;;;;;4.80;4.30;;;11.50;99.90;;;;;;4977183;28;20125;-85
2021/11/07 03:10:26;;;;;;;4.13;3.72;;;11.60;99.90;;;;;;4994150;28;20023;-86
2021/11/07 03:13:10;;;;;;;5.70;4.40;;;11.60;99.90;;;;;;4977260;28;20081;-85
2021/11/07 03:15:39;;;;;;;7.28;4.68;;;11.60;99.90;;;;;;4976515;28;20501;-87
2021/11/07 03:18:05;;;;;;;11.80;8.68;;;11.60;99.90;;;;;;4993707;28;20073;-86
2021/11/07 03:20:31;;;;;;;5.22;4.57;;;11.60;99.90;;;;;;4993978;28;20017;-87
2021/11/07 03:22:57;;;;;;;5.68;4.60;;;11.60;99.90;;;;;;4994408;28;20026;-87
2021/11/07 03:25:24;;;;;;;6.47;4.65;;;11.50;99.90;;;;;;4994190;28;20065;-88
2021/11/07 03:27:50;;;;;;;5.47;4.28;;;11.40;99.90;;;;;;4995296;28;20026;-86
2021/11/07 03:35:46;;;;;;;7.55;5.10;;;11.40;99.90;;;;;;4998500;28;20045;-86
2021/11/07 03:38:11;;;;;;;6.25;4.20;;;11.50;99.90;;;;;;4997751;28;20101;-87
2021/11/07 03:40:38;;;;;;;5.93;4.68;;;11.50;99.90;;;;;;4980251;28;20081;-86
2021/11/07 03:43:04;;;;;;;6.10;4.00;;;11.50;99.90;;;;;;4997973;28;20029;-88
2021/11/07 03:45:30;;;;;;;5.60;4.72;;;11.50;99.90;;;;;;4997882;28;20022;-87
2021/11/07 03:47:56;;;;;;;6.25;4.30;;;11.50;99.90;;;;;;4997995;28;20062;-90
2021/11/07 03:50:25;;;;;;;4.90;4.35;;;11.50;99.90;;;;;;4997547;28;20120;-87
2021/11/07 03:52:51;;;;;;;6.22;4.20;;;11.40;99.90;;;;;;4997791;28;20065;-87
2021/11/07 03:55:17;;;;;;;6.20;4.85;;;11.40;99.90;;;;;;4980729;28;20046;-87
2021/11/07 03:57:43;;;;;;;6.35;4.32;;;11.50;99.90;;;;;;4980516;28;20125;-86
2021/11/07 04:00:11;;;;;;;9.65;4.10;;;11.50;99.90;;;;;;4996723;28;20034;-85
2021/11/07 04:02:39;;;;;;;6.03;4.88;;;11.40;99.90;;;;;;4979098;28;20034;-85
2021/11/07 04:05:07;;;;;;;5.85;4.20;;;11.40;99.90;;;;;;4976494;28;20019;-85
2021/11/07 04:07:33;;;;;;;6.72;4.70;;;11.40;99.90;;;;;;4977606;28;20031;-86
2021/11/07 04:09:59;;;;;;;5.00;4.50;;;11.40;99.90;;;;;;4960477;28;20027;-88
2021/11/07 04:12:25;;;;;;;8.15;4.03;;;11.40;99.90;;;;;;4977555;28;20093;-86
2021/11/07 04:14:51;;;;;;;4.72;4.15;;;11.40;99.90;;;;;;4977179;28;20492;-87
2021/11/07 04:17:17;;;;;;;7.00;3.92;;;11.40;99.90;;;;;;4977620;28;20019;-86
2021/11/07 04:19:43;;;;;;;4.80;3.80;;;11.50;99.90;;;;;;4981654;28;20018;-86
2021/11/07 04:22:11;;;;;;;4.43;3.60;;;11.50;99.90;;;;;;4979521;28;20084;-87
2021/11/07 04:24:37;;;;;;;4.50;4.10;;;11.50;99.90;;;;;;4979029;28;20022;-87
2021/11/07 04:27:04;;;;;;;6.10;3.70;;;11.50;99.90;;;;;;4996673;28;20389;-87
2021/11/07 04:29:30;;;;;;;9.00;4.15;;;11.50;99.90;;;;;;4979265;28;20493;-87
2021/11/07 04:31:56;;;;;;;8.65;3.85;;;11.60;99.90;;;;;;4978885;28;20018;-88
2021/11/07 04:34:23;;;;;;;4.13;3.63;;;11.50;99.90;;;;;;4996726;28;20164;-87
2021/11/07 04:36:49;;;;;;;7.30;3.72;;;11.50;99.90;;;;;;4996608;28;20021;-88
2021/11/07 04:39:16;;;;;;;4.50;3.47;;;11.60;99.90;;;;;;4995454;28;20101;-87
2021/11/07 04:41:41;;;;;;;10.90;3.92;;;11.60;99.90;;;;;;4996711;28;20034;-87
2021/11/07 04:44:07;;;;;;;5.55;3.65;;;11.60;99.90;;;;;;4978749;28;20045;-87
2021/11/07 04:46:35;;;;;;;4.75;3.70;;;11.60;99.90;;;;;;4996522;28;20069;-86
2021/11/07 04:49:02;;;;;;;4.68;4.10;;;11.60;99.90;;;;;;4996277;28;20030;-86
2021/11/07 04:51:27;;;;;;;6.40;3.67;;;11.50;99.90;;;;;;4994881;28;20054;-87
2021/11/07 04:53:53;;;;;;;4.72;3.70;;;11.60;99.90;;;;;;4978912;28;20487;-88
2021/11/07 04:56:19;;;;;;;5.25;3.83;;;11.60;99.90;;;;;;4996462;28;20038;-88
2021/11/07 04:58:46;;;;;;;4.80;3.83;;;11.50;99.90;;;;;;4996533;28;20202;-89
2021/11/07 05:01:12;;;;;;;4.50;3.47;;;11.50;99.90;;;;;;4978668;28;20038;-87
2021/11/07 05:03:38;;;;;;;4.07;3.55;;;11.50;99.90;;;;;;4996272;28;20030;-88
2021/11/07 05:06:04;;;;;;;6.18;3.38;;;11.50;99.90;;;;;;4996213;28;20022;-87
2021/11/07 05:08:29;;;;;;;5.22;3.40;;;11.50;99.90;;;;;;4978440;28;20037;-85
2021/11/07 05:10:55;;;;;;;6.32;3.35;;;11.50;99.90;;;;;;4996110;28;20381;-88
2021/11/07 05:13:21;;;;;;;3.75;3.05;;;11.60;99.90;;;;;;4996175;28;20112;-87
2021/11/07 05:15:47;;;;;;;4.65;3.60;;;11.60;99.90;;;;;;4995971;28;20019;-87
2021/11/07 05:18:13;;;;;;;4.97;3.00;;;11.70;99.90;;;;;;4978803;28;20022;-87
2021/11/07 05:20:39;;;;;;;4.03;3.17;;;11.70;99.90;;;;;;4995955;28;20041;-87
2021/11/07 05:23:05;;;;;;;5.22;3.00;;;11.70;99.90;;;;;;4995947;28;20124;-87
2021/11/07 05:25:30;;;;;;;5.03;2.83;;;11.70;99.90;;;;;;4977706;28;20393;-86
2021/11/07 05:27:57;;;;;;;3.75;3.10;;;11.70;99.90;;;;;;4995291;28;20034;-86
2021/11/07 05:30:22;;;;;;;4.45;3.35;;;11.70;99.90;;;;;;4978514;28;20436;-88
2021/11/07 05:32:48;;;;;;;4.60;3.15;;;11.80;99.90;;;;;;4978493;28;20027;-87
2021/11/07 05:35:19;;;;;;;3.92;3.00;;;11.80;99.90;;;;;;4995669;28;20029;-87
2021/11/07 05:37:46;;;;;;;5.63;3.83;;;11.80;99.90;;;;;;4978053;28;20026;-87
2021/11/07 05:40:12;;;;;;;6.53;3.00;;;11.80;99.90;;;;;;4995613;28;20026;-87
2021/11/07 05:42:37;;;;;;;6.72;3.40;;;11.80;99.90;;;;;;4995398;28;20037;-87
2021/11/07 05:45:05;;;;;;;3.45;2.92;;;11.80;99.90;;;;;;4978738;28;20022;-86
2021/11/07 05:47:31;;;;;;;4.68;2.72;;;11.80;99.90;;;;;;4978348;28;20038;-86
2021/11/07 05:49:57;;;;;;;3.40;2.53;;;11.80;99.90;;;;;;4978149;28;20442;-86
2021/11/07 05:52:24;;;;;;;2.90;2.50;;;11.90;99.90;;;;;;4995912;28;20050;-87
2021/11/07 05:54:50;;;;;;;2.95;2.28;;;11.90;99.90;;;;;;4978198;28;20030;-87
2021/11/07 05:57:15;;;;;;;3.15;2.70;;;11.90;99.90;;;;;;4995454;28;20026;-86
2021/11/07 05:59:41;;;;;;;3.25;2.60;;;11.90;99.90;;;;;;4995084;28;20065;-86
2021/11/07 06:02:07;;;;;;;4.32;2.38;;;11.90;99.90;;;;;;4995219;28;20390;-87
2021/11/07 06:04:33;;;;;;;4.43;2.40;;;11.90;99.90;;;;;;4995088;28;20041;-88
2021/11/07 06:06:59;;;;;;;2.58;2.20;;;11.90;99.90;;;;;;4977641;28;20022;-87
2021/11/07 06:09:24;;;;;;;4.65;2.45;;;12.00;99.90;;;;;;4994319;28;20101;-87
2021/11/07 06:11:50;;;;;;;4.90;3.10;;;12.00;99.90;;;;;;4977181;28;20501;-87
2021/11/07 06:14:16;;;;;;;5.05;2.72;;;12.10;99.90;;;;;;4995376;28;20118;-86
2021/11/07 06:16:41;;;;;;;5.30;3.10;;;12.10;99.90;;;;;;4976959;28;20038;-86
2021/11/07 06:19:07;;;;;;;4.18;2.70;;;12.10;99.90;;;;;;4974912;28;20026;-85
2021/11/07 06:21:35;;;;;;;3.35;2.72;;;12.10;99.90;;;;;;4958705;28;20074;-86
2021/11/07 06:24:03;;;;;;;3.60;2.83;;;12.10;99.90;;;;;;4957824;28;20019;-87
2021/11/07 06:26:29;;;;;;;3.60;2.92;;;12.20;99.90;;;;;;4975213;28;20118;-86
2021/11/07 06:28:57;;;;;;;4.68;2.83;;;12.20;99.90;;;;;;4957848;28;20121;-87
2021/11/07 06:31:23;;;;;;;10.57;3.00;;;12.20;99.90;;;;;;4958466;28;20061;-88
2021/11/07 06:33:49;;;;;;;3.67;2.95;;;12.30;99.90;;;;;;4976136;28;20023;-88
2021/11/07 06:36:16;;;;;;;5.63;2.92;;;12.20;99.90;;;;;;4959373;28;20018;-86
2021/11/07 06:38:41;;;;;;;4.47;3.30;;;12.20;99.90;;;;;;4975946;28;20031;-87
2021/11/07 06:41:07;;;;;;;3.63;3.20;;;12.20;99.90;;;;;;4957325;28;20022;-84
2021/11/07 06:43:34;;;;;;;3.05;2.75;;;12.10;99.90;;;;;;4975464;28;20030;-86
2021/11/07 06:46:00;;;;;;;3.33;2.92;;;12.10;99.90;;;;;;4975294;28;20019;-86
2021/11/07 06:48:27;;;;;;;4.25;3.17;;;12.10;99.90;;;;;;4975480;28;20035;-86
2021/11/07 06:50:53;;;;;;;4.20;2.90;;;12.10;99.90;;;;;;4975356;28;20482;-86
2021/11/07 06:53:19;;;;;;;5.82;3.03;;;12.10;99.90;;;;;;4957492;28;20039;-86
2021/11/07 06:55:45;;;;;;;4.72;3.15;;;12.20;99.90;;;;;;4976279;28;20018;-86
2021/11/07 06:58:11;;;;;;;3.60;3.00;;;12.20;99.90;;;;;;4976842;28;20069;-86
2021/11/07 07:00:37;;;;;;;3.33;2.85;;;12.20;99.90;;;;;;4975754;28;20026;-87
2021/11/07 07:03:03;;;;;;;4.00;2.88;;;12.20;99.90;;;;;;4975269;28;20452;-86
2021/11/07 07:05:29;;;;;;;4.20;3.15;;;12.10;99.90;;;;;;4977022;28;20106;-87
2021/11/07 07:07:57;;;;;;;4.43;3.22;;;12.10;99.90;;;;;;4958557;28;20107;-88
2021/11/07 07:10:28;;;;;;;4.05;3.40;;;12.10;99.90;;;;;;4959364;28;20030;-86
2021/11/07 07:15:29;;;;;;;6.72;3.35;;;12.20;99.90;;;;;;4978473;28;20062;-86
2021/11/07 07:31:43;;;;;;;3.75;2.78;;;12.40;99.90;;;;;;4935523;29;20028;-89
2021/11/07 07:34:11;;;;;;;3.85;2.85;;;12.70;99.90;;;;;;4939231;29;20044;-84
2021/11/07 07:36:38;;;;;;;3.28;2.80;;;12.80;99.90;;;;;;4908878;29;20036;-89
2021/11/07 07:39:05;;;;;;;3.08;2.70;;;13.00;99.90;;;;;;4922723;29;20031;-88
2021/11/07 07:41:32;;;;;;;4.18;2.88;;;13.00;99.90;;;;;;4923031;28;20024;-87
2021/11/07 07:44:02;;;;;;;4.68;2.90;;;13.10;99.90;;;;;;4975059;28;20027;-87
2021/11/07 07:46:28;;;;;;;5.40;2.50;;;13.10;99.90;;;;;;4982271;28;20030;-91
2021/11/07 07:48:55;;;;;;;6.07;3.00;;;13.10;99.90;;;;;;4982905;28;20039;-88
2021/11/07 07:51:23;;;;;;;3.25;2.85;;;13.10;99.90;;;;;;4975831;28;20054;-93
2021/11/07 07:53:48;;;;;;;3.30;2.78;;;13.10;99.90;;;;;;4997856;28;20041;-91
2021/11/07 07:56:15;;;;;;;4.60;3.13;;;13.10;99.90;;;;;;4998187;28;20018;-84
2021/11/07 07:58:41;;;;;;;7.25;2.67;;;13.10;99.90;;;;;;4995069;28;20038;-89
2021/11/07 08:01:08;;;;;;;4.00;2.72;;;13.10;99.90;;;;;;4996251;28;20149;-86
2021/11/07 08:03:34;;;;;;;5.70;3.20;;;13.10;99.90;;;;;;4994472;28;20036;-84
2021/11/07 08:06:00;;;;;;;3.13;2.67;;;13.30;99.90;;;;;;5000147;28;20023;-89
2021/11/07 08:08:27;;;;;;;4.97;2.38;;;13.40;99.90;;;;;;4997440;28;20090;-85
2021/11/07 08:10:53;;;;;;;4.10;2.45;;;13.60;99.90;;;;;;4978327;28;20057;-88
2021/11/07 08:13:18;;;;;;;2.83;2.40;;;13.70;99.90;;;;;;4995738;28;20041;-81
2021/11/07 08:15:44;;;;;;;5.55;2.40;;;13.90;99.90;;;;;;4996240;28;20031;-87
2021/11/07 08:18:10;;;;;;;2.78;2.22;;;14.00;99.90;;;;;;4980245;28;20018;-85
2021/11/07 08:20:35;;;;;;;2.00;1.80;;;14.10;99.90;;;;;;4984899;28;20026;-87
2021/11/07 08:23:01;;;;;;;2.33;2.10;;;14.30;99.90;;;;;;4998156;28;20050;-88
2021/11/07 08:25:27;;;;;;;2.83;2.05;;;14.40;99.90;;;;;;4998060;28;20026;-86
2021/11/07 08:28:00;;;;;;;5.47;2.40;;;14.50;99.90;;;;;;4981355;28;20027;-89
2021/11/07 08:30:27;;;;;;;4.35;2.60;;;14.60;99.90;;;;;;5001320;28;20023;-90
2021/11/07 08:32:53;;;;;;;4.68;2.50;;;14.70;99.90;;;;;;5003319;28;20102;-88
2021/11/07 08:35:20;;;;;;;2.97;2.45;;;14.70;99.90;;;;;;4989772;28;20038;-89
2021/11/07 08:37:55;;;;;;;3.50;2.28;;;14.80;99.90;;;;;;4990705;28;20496;-90
2021/11/07 08:40:30;;;;;;;2.95;2.15;;;14.90;99.90;;;;;;5013444;28;20041;-92
2021/11/07 09:07:01;;;;;;;3.78;1.92;;;16.20;99.90;;;;;;5022307;28;20117;-87
2021/11/07 09:09:32;;;;;;;2.63;1.90;;;16.20;99.90;;;;;;5027016;28;20033;-85
2021/11/07 09:11:59;;;;;;;2.08;1.88;;;16.10;99.90;;;;;;5027518;28;20026;-89
2021/11/07 09:14:35;;;;;;;2.45;1.98;;;16.10;99.90;;;;;;5007893;28;20049;-88
2021/11/07 09:17:02;;;;;;;2.88;2.03;;;16.10;99.90;;;;;;5001285;28;20037;-84
2021/11/07 09:19:30;;;;;;;3.67;2.30;;;16.00;99.90;;;;;;5018694;28;20056;-88
2021/11/07 09:22:10;;;;;;;3.33;2.22;;;16.00;99.90;;;;;;5021532;28;20105;-88
2021/11/07 09:27:10;;;;;;;4.07;2.38;;;16.10;99.90;;;;;;5017755;28;20065;-84
2021/11/07 09:29:56;;;;;;;3.00;2.20;;;16.30;99.90;;;;;;5018426;28;20037;-82
2021/11/07 09:40:15;;;;;;;3.50;2.30;;;16.90;99.90;;;;;;5017075;28;20022;-85
2021/11/07 09:47:50;;;;;;;5.28;2.30;;;16.40;99.90;;;;;;5018364;28;20033;-85
2021/11/07 09:50:17;;;;;;;6.53;2.35;;;16.30;99.90;;;;;;5018058;28;20041;-86
2021/11/07 09:52:54;;;;;;;3.25;2.30;;;16.30;99.90;;;;;;5017956;28;20096;-84
2021/11/07 09:55:24;;;;;;;3.13;2.30;;;16.30;99.90;;;;;;5013364;28;20057;-85
2021/11/07 09:57:52;;;;;;;2.75;2.13;;;16.50;99.90;;;;;;4981529;28;20026;-85
2021/11/07 10:00:28;;;;;;;3.88;2.40;;;16.60;99.90;;;;;;5012600;28;20105;-84
2021/11/07 10:02:54;;;;;;;5.53;2.47;;;16.90;99.90;;;;;;5013602;28;20038;-84
2021/11/07 10:05:20;;;;;;;3.78;2.60;;;17.10;99.90;;;;;;5012378;28;20392;-85
2021/11/07 10:08:00;;;;;;;6.30;2.13;;;17.30;99.90;;;;;;4997213;28;20034;-86
2021/11/07 10:10:31;;;;;;;2.85;2.40;;;17.30;99.90;;;;;;5014595;28;20113;-85
2021/11/07 10:13:05;;;;;;;4.80;2.40;;;17.40;99.90;;;;;;5015565;28;20072;-86
2021/11/07 10:15:41;;;;;;;3.08;2.78;;;17.00;99.90;;;;;;5014018;28;20033;-87
2021/11/07 10:18:13;;;;;;;3.53;2.50;;;16.60;99.90;;;;;;5015250;28;20053;-85
2021/11/07 10:20:50;;;;;;;3.08;2.33;;;16.30;99.90;;;;;;5012737;28;20029;-83
2021/11/07 10:26:08;;;;;;;6.10;2.70;;;16.30;99.90;;;;;;5022799;28;20010;-91
2021/11/07 10:28:43;;;;;;;3.13;2.28;;;16.20;99.90;;;;;;5014551;28;20037;-83
2021/11/07 10:44:33;;;;;;;4.45;3.00;;;15.40;99.90;;;;;;5011108;28;20064;-82
2021/11/07 10:48:00;;;;;;;6.03;2.70;;;15.40;99.90;;;;;;5005406;28;20072;-82
2021/11/07 10:53:14;;;;;;;4.20;2.88;;;15.60;99.90;;;;;;5011048;28;20057;-82
2021/11/07 10:55:46;;;;;;;3.65;2.83;;;15.50;99.90;;;;;;5010099;28;20545;-84
2021/11/07 10:58:36;;;;;;;3.35;2.58;;;15.60;99.90;;;;;;5014963;28;20065;-85
2021/11/07 11:01:24;;;;;;;4.35;2.47;;;15.90;99.90;;;;;;5007806;28;20030;-85
2021/11/07 11:03:59;;;;;;;3.63;2.65;;;16.20;99.90;;;;;;5006088;28;20030;-86
2021/11/07 11:06:26;;;;;;;3.60;2.70;;;16.10;99.90;;;;;;5014796;28;20022;-85
2021/11/07 11:09:03;;;;;;;3.35;2.38;;;16.20;99.90;;;;;;5011263;28;20049;-84
2021/11/07 11:28:49;;;;;;;4.25;2.75;;;15.70;99.90;;;;;;5004336;28;20045;-85
2021/11/07 11:31:05;;;;;;;4.20;2.50;;;15.70;99.90;;;;;;5004243;28;20408;-86
2021/11/07 11:38:39;;;;;;;6.35;2.42;;;15.60;99.90;;;;;;5004299;28;20026;-86
2021/11/07 11:41:12;;;;;;;3.55;3.20;;;15.50;99.90;;;;;;5010438;28;20030;-85
2021/11/07 11:43:43;;;;;;;4.20;3.05;;;15.30;99.90;;;;;;4989467;28;20037;-84
2021/11/07 11:46:24;;;;;;;12.52;3.00;;;15.00;99.90;;;;;;5016257;28;20018;-84
2021/11/07 12:00:11;;;;;;;6.10;3.10;;;14.90;99.90;;;;;;5013702;28;20033;-85
2021/11/07 12:02:55;;;;;;;7.63;3.17;;;14.80;99.90;;;;;;5014441;28;20030;-89
2021/11/07 12:05:37;;;;;;;5.30;3.10;;;14.70;99.90;;;;;;5019136;28;20030;-88
2021/11/07 12:08:08;;;;;;;5.75;3.03;;;14.50;99.90;;;;;;5007839;28;20042;-89
2021/11/07 12:10:59;;;;;;;6.00;3.50;;;14.40;99.90;;;;;;5003857;28;20485;-87
2021/11/07 12:13:58;;;;;;;4.95;2.80;;;14.30;99.90;;;;;;5003543;28;20176;-87
2021/11/07 12:16:55;;;;;;;6.10;3.05;;;14.20;99.90;;;;;;5010549;28;20033;-87
2021/11/07 12:19:33;;;;;;;5.97;2.80;;;14.00;99.90;;;;;;5019980;28;20022;-85
2021/11/07 12:22:11;;;;;;;4.13;3.10;;;13.90;99.90;;;;;;5000693;28;20049;-84
2021/11/07 12:24:49;;;;;;;3.55;2.70;;;13.80;99.90;;;;;;5013185;28;20022;-85
2021/11/07 12:27:36;;;;;;;7.60;3.45;;;13.70;99.90;;;;;;4998682;28;20089;-89
2021/11/07 12:30:13;;;;;;;6.95;3.08;;;13.70;99.90;;;;;;5008749;28;20026;-92
2021/11/07 12:33:01;;;;;;;5.00;3.20;;;13.90;99.90;;;;;;5001659;28;20023;-84
2021/11/07 12:41:11;;;;;;;7.32;3.65;;;14.00;99.90;;;;;;5022218;28;20029;-92
2021/11/07 12:43:39;;;;;;;4.80;3.38;;;14.20;99.90;;;;;;5014568;28;20030;-85
2021/11/07 12:46:13;;;;;;;5.65;3.45;;;14.20;99.90;;;;;;5020382;28;20058;-86
2021/11/07 12:48:51;;;;;;;6.20;3.45;;;14.20;99.90;;;;;;5009935;28;20029;-87
2021/11/07 12:51:36;;;;;;;5.88;4.40;;;14.40;99.90;;;;;;5017572;28;20366;-83
2021/11/07 12:54:13;;;;;;;10.48;4.78;;;14.50;99.90;;;;;;5016428;28;20104;-81
2021/11/07 12:56:44;;;;;;;8.15;3.97;;;14.60;99.90;;;;;;4999314;28;20018;-83
2021/11/07 12:59:16;;;;;;;5.40;3.97;;;14.70;99.90;;;;;;5011389;28;20564;-80
2021/11/07 13:02:21;;;;;;;5.03;2.92;;;14.80;99.90;;;;;;5010253;28;20477;-81
2021/11/07 13:05:12;;;;;;;7.68;3.10;;;14.90;99.90;;;;;;4997002;28;20042;-79
2021/11/07 13:07:51;;;;;;;5.30;2.90;;;15.00;99.90;;;;;;5001998;28;20034;-80
2021/11/07 13:21:58;;;;;;;4.20;2.60;;;14.80;99.90;;;;;;5013597;28;20033;-79
2021/11/07 13:24:32;;;;;;;5.72;3.28;;;14.80;99.90;;;;;;5011008;28;20041;-77
2021/11/07 13:34:58;;;;;;;3.35;2.80;;;14.90;99.90;;;;;;5008006;28;20492;-79
2021/11/07 13:37:29;;;;;;;5.00;2.50;;;14.80;99.90;;;;;;5011097;28;20396;-80
2021/11/07 13:40:08;;;;;;;6.45;2.72;;;14.70;99.90;;;;;;5007910;28;20037;-80
2021/11/07 13:42:36;;;;;;;3.60;2.60;;;14.60;99.90;;;;;;4993091;28;20121;-82
2021/11/07 13:45:04;;;;;;;4.65;2.85;;;14.60;99.90;;;;;;5009503;28;20036;-80
2021/11/07 13:47:35;;;;;;;2.50;2.30;;;14.60;99.90;;;;;;4997158;28;20062;-80
2021/11/07 13:50:04;;;;;;;8.27;2.90;;;14.50;99.90;;;;;;5007863;28;20125;-80
2021/11/07 13:52:34;;;;;;;4.70;2.67;;;14.50;99.90;;;;;;5008547;28;20096;-81
2021/11/07 13:55:00;;;;;;;4.55;3.25;;;14.50;99.90;;;;;;5004190;28;20072;-81
2021/11/07 13:57:31;;;;;;;4.72;2.60;;;14.50;99.90;;;;;;5008787;28;20030;-80
2021/11/07 13:59:58;;;;;;;2.72;2.30;;;14.30;99.90;;;;;;5012173;28;20056;-81
2021/11/07 14:02:25;;;;;;;8.23;2.97;;;14.30;99.90;;;;;;5013762;28;20029;-81
2021/11/07 14:04:57;;;;;;;4.75;2.65;;;14.20;99.90;;;;;;5012424;28;20034;-80
2021/11/07 14:07:32;;;;;;;4.82;2.60;;;14.20;99.90;;;;;;5011701;28;20485;-81
2021/11/07 14:10:17;;;;;;;5.32;2.38;;;14.20;99.90;;;;;;5010383;28;20061;-85
2021/11/07 14:12:43;;;;;;;5.40;2.55;;;14.40;99.90;;;;;;4991479;28;20025;-84
2021/11/07 14:15:24;;;;;;;5.63;3.13;;;14.50;99.90;;;;;;5008859;28;20030;-82
2021/11/07 14:17:56;;;;;;;5.25;2.67;;;14.60;99.90;;;;;;5010986;28;20018;-82
2021/11/07 14:20:37;;;;;;;4.70;2.90;;;14.60;99.90;;;;;;5010321;28;20416;-79
2021/11/07 14:23:20;;;;;;;6.32;3.28;;;14.60;99.90;;;;;;5012120;28;20033;-81
2021/11/07 14:26:04;;;;;;;6.80;3.45;;;14.70;99.90;;;;;;5009940;28;20389;-81
2021/11/07 14:28:39;;;;;;;6.95;3.60;;;14.80;99.90;;;;;;5010091;28;20400;-83
2021/11/07 14:31:17;;;;;;;5.50;3.58;;;14.80;99.90;;;;;;5007910;28;20022;-84
2021/11/07 14:33:55;;;;;;;5.55;3.20;;;14.80;99.90;;;;;;5010536;28;20025;-79
2021/11/07 14:48:23;;;;;;;6.18;3.00;;;14.30;99.90;;;;;;5020554;28;20022;-86
2021/11/07 14:53:34;;;;;;;7.78;3.38;;;14.30;99.90;;;;;;5026596;28;20046;-84
2021/11/07 14:56:15;;;;;;;4.45;3.42;;;14.30;99.90;;;;;;5015347;28;20029;-83
2021/11/07 14:59:11;;;;;;;11.73;4.00;;;14.30;99.90;;;;;;5033133;28;20141;-89
2021/11/07 15:01:41;;;;;;;7.88;4.20;;;14.20;99.90;;;;;;5015877;28;20388;-85
2021/11/07 15:06:43;;;;;;;9.38;4.15;;;14.20;99.90;;;;;;5039013;28;20025;-86
2021/11/07 15:09:21;;;;;;;6.72;3.90;;;14.20;99.90;;;;;;5012120;28;20042;-87
2021/11/07 15:12:41;;;;;;;6.18;3.63;;;14.20;99.90;;;;;;5042046;28;20056;-83
2021/11/07 15:20:55;;;;;;;6.85;4.28;;;14.00;99.90;;;;;;5038816;28;20496;-85
2021/11/07 15:23:33;;;;;;;8.40;4.57;;;13.90;99.90;;;;;;5020718;28;20033;-86
2021/11/07 15:26:17;;;;;;;5.75;4.18;;;13.70;99.90;;;;;;5027308;28;20041;-88
2021/11/07 15:28:43;;;;;;;9.38;4.63;;;13.50;99.90;;;;;;5028998;28;20052;-83
2021/11/07 15:31:17;;;;;;;9.95;6.80;;;13.30;99.90;;;;;;5037945;28;20144;-88
2021/11/07 15:33:45;;;;;;;7.82;5.38;;;13.20;99.90;;;;;;5032310;28;20532;-87
2021/11/07 15:36:11;;;;;;;7.32;4.90;;;13.10;99.90;;;;;;5013206;28;20032;-90
2021/11/07 15:38:38;;;;;;;9.93;5.20;;;13.00;99.90;;;;;;5024246;28;20227;-88
2021/11/07 15:41:11;;;;;;;7.03;4.32;;;13.00;99.90;;;;;;5019778;28;20022;-85
2021/11/07 15:43:48;;;;;;;6.60;4.30;;;13.00;99.90;;;;;;5014153;28;20025;-83
2021/11/07 15:46:16;;;;;;;6.68;4.18;;;13.00;99.90;;;;;;5037946;28;20033;-89
2021/11/07 15:48:48;;;;;;;10.82;7.30;;;12.90;99.90;;;;;;5019793;28;20033;-88
2021/11/07 16:01:38;;;;;;;8.63;6.78;;;12.80;99.90;;;;;;5025315;28;20018;-86
2021/11/07 16:14:23;;;;;;;12.80;5.95;;;12.70;99.90;;;;;;5036060;28;20188;-85
2021/11/07 16:16:59;;;;;;;9.48;5.78;;;12.80;99.90;;;;;;5032069;28;20611;-85
2021/11/07 16:19:29;;;;;;;8.73;5.50;;;12.80;99.90;;;;;;5014874;28;20036;-79
2021/11/07 16:21:54;;;;;;;7.43;5.93;;;12.80;99.90;;;;;;5038317;28;20040;-85
2021/11/07 16:24:24;;;;;;;20.73;15.00;;;12.80;99.90;;;;;;5037796;28;20022;-87